sensor_id;sensor_type;location;lat;lon;timestamp;temperature;humidity
41533;DHT22;27262;-35.248;149.138;2023-02-15T00:00:38;21.90;62.80
41533;DHT22;27262;-35.248;149.138;2023-02-15T00:03:08;21.90;62.80
41533;DHT22;27262;-35.248;149.138;2023-02-15T00:05:38;21.90;62.90
41533;DHT22;27262;-35.248;149.138;2023-02-15T00:08:09;21.90;62.80
41533;DHT22;27262;-35.248;149.138;2023-02-15T00:10:39;21.90;62.80
41533;DHT22;27262;-35.248;149.138;2023-02-15T00:13:09;21.90;62.90
41533;DHT22;27262;-35.248;149.138;2023-02-15T00:15:42;21.90;62.90
41533;DHT22;27262;-35.248;149.138;2023-02-15T00:18:12;21.90;62.90
41533;DHT22;27262;-35.248;149.138;2023-02-15T00:20:42;21.90;62.80
41533;DHT22;27262;-35.248;149.138;2023-02-15T00:23:12;21.90;62.80
41533;DHT22;27262;-35.248;149.138;2023-02-15T00:25:43;21.90;62.80
41533;DHT22;27262;-35.248;149.138;2023-02-15T00:28:13;22.00;62.90
41533;DHT22;27262;-35.248;149.138;2023-02-15T00:30:43;22.00;63.00
41533;DHT22;27262;-35.248;149.138;2023-02-15T00:33:13;22.00;63.00
41533;DHT22;27262;-35.248;149.138;2023-02-15T00:35:44;22.00;63.00
41533;DHT22;27262;-35.248;149.138;2023-02-15T00:38:14;22.00;63.10
41533;DHT22;27262;-35.248;149.138;2023-02-15T00:40:53;22.00;63.10
41533;DHT22;27262;-35.248;149.138;2023-02-15T00:43:24;22.00;63.10
41533;DHT22;27262;-35.248;149.138;2023-02-15T00:45:54;22.00;63.20
41533;DHT22;27262;-35.248;149.138;2023-02-15T00:48:25;22.00;63.10
41533;DHT22;27262;-35.248;149.138;2023-02-15T00:50:57;22.10;63.40
41533;DHT22;27262;-35.248;149.138;2023-02-15T00:53:28;22.10;63.30
41533;DHT22;27262;-35.248;149.138;2023-02-15T00:55:59;22.00;63.20
41533;DHT22;27262;-35.248;149.138;2023-02-15T00:58:30;22.10;63.20
41533;DHT22;27262;-35.248;149.138;2023-02-15T01:01:09;22.00;63.20
41533;DHT22;27262;-35.248;149.138;2023-02-15T01:03:40;22.10;63.30
41533;DHT22;27262;-35.248;149.138;2023-02-15T01:06:15;22.10;63.40
41533;DHT22;27262;-35.248;149.138;2023-02-15T01:08:46;22.10;63.40
41533;DHT22;27262;-35.248;149.138;2023-02-15T01:11:20;22.10;63.50
41533;DHT22;27262;-35.248;149.138;2023-02-15T01:13:56;22.10;63.50
41533;DHT22;27262;-35.248;149.138;2023-02-15T01:16:28;22.10;63.60
41533;DHT22;27262;-35.248;149.138;2023-02-15T01:19:01;22.10;63.60
41533;DHT22;27262;-35.248;149.138;2023-02-15T01:21:32;22.10;63.60
41533;DHT22;27262;-35.248;149.138;2023-02-15T01:24:04;22.20;63.70
41533;DHT22;27262;-35.248;149.138;2023-02-15T01:26:34;22.10;63.60
41533;DHT22;27262;-35.248;149.138;2023-02-15T01:29:04;22.20;63.70
41533;DHT22;27262;-35.248;149.138;2023-02-15T01:31:35;22.20;63.70
41533;DHT22;27262;-35.248;149.138;2023-02-15T01:34:05;22.20;63.70
41533;DHT22;27262;-35.248;149.138;2023-02-15T01:36:35;22.20;63.60
41533;DHT22;27262;-35.248;149.138;2023-02-15T01:39:06;22.20;63.60
41533;DHT22;27262;-35.248;149.138;2023-02-15T01:41:37;22.30;63.70
41533;DHT22;27262;-35.248;149.138;2023-02-15T01:47:22;22.30;63.60
41533;DHT22;27262;-35.248;149.138;2023-02-15T01:56:19;22.30;63.60
41533;DHT22;27262;-35.248;149.138;2023-02-15T01:58:52;22.30;63.60
41533;DHT22;27262;-35.248;149.138;2023-02-15T02:01:23;22.30;63.60
41533;DHT22;27262;-35.248;149.138;2023-02-15T02:04:31;22.30;63.60
41533;DHT22;27262;-35.248;149.138;2023-02-15T02:07:03;22.30;63.40
41533;DHT22;27262;-35.248;149.138;2023-02-15T02:09:35;22.30;63.50
41533;DHT22;27262;-35.248;149.138;2023-02-15T02:12:07;22.30;63.50
41533;DHT22;27262;-35.248;149.138;2023-02-15T02:14:39;22.40;63.50
41533;DHT22;27262;-35.248;149.138;2023-02-15T02:32:04;22.40;63.40
41533;DHT22;27262;-35.248;149.138;2023-02-15T02:40:25;22.50;63.40
41533;DHT22;27262;-35.248;149.138;2023-02-15T02:43:10;22.50;63.40
41533;DHT22;27262;-35.248;149.138;2023-02-15T02:46:07;22.50;63.40
41533;DHT22;27262;-35.248;149.138;2023-02-15T02:48:35;22.50;63.40
41533;DHT22;27262;-35.248;149.138;2023-02-15T02:51:06;22.50;63.40
41533;DHT22;27262;-35.248;149.138;2023-02-15T02:53:37;22.50;63.40
41533;DHT22;27262;-35.248;149.138;2023-02-15T02:56:34;22.50;63.30
41533;DHT22;27262;-35.248;149.138;2023-02-15T03:01:45;22.50;63.30
41533;DHT22;27262;-35.248;149.138;2023-02-15T03:04:21;22.60;63.30
41533;DHT22;27262;-35.248;149.138;2023-02-15T03:07:00;22.60;63.30
41533;DHT22;27262;-35.248;149.138;2023-02-15T03:09:38;22.60;63.30
41533;DHT22;27262;-35.248;149.138;2023-02-15T03:12:19;22.60;63.20
41533;DHT22;27262;-35.248;149.138;2023-02-15T03:15:01;22.60;63.30
41533;DHT22;27262;-35.248;149.138;2023-02-15T03:17:36;22.60;63.20
41533;DHT22;27262;-35.248;149.138;2023-02-15T03:20:22;22.70;63.20
41533;DHT22;27262;-35.248;149.138;2023-02-15T03:23:10;22.70;63.20
41533;DHT22;27262;-35.248;149.138;2023-02-15T03:25:46;22.70;63.90
41533;DHT22;27262;-35.248;149.138;2023-02-15T03:28:43;22.70;63.20
41533;DHT22;27262;-35.248;149.138;2023-02-15T03:31:15;22.70;63.10
41533;DHT22;27262;-35.248;149.138;2023-02-15T03:33:57;22.70;63.20
41533;DHT22;27262;-35.248;149.138;2023-02-15T03:42:05;22.80;63.40
41533;DHT22;27262;-35.248;149.138;2023-02-15T03:47:49;22.80;63.30
41533;DHT22;27262;-35.248;149.138;2023-02-15T03:50:31;22.80;63.20
41533;DHT22;27262;-35.248;149.138;2023-02-15T03:53:22;22.90;63.40
41533;DHT22;27262;-35.248;149.138;2023-02-15T03:55:56;22.80;63.30
41533;DHT22;27262;-35.248;149.138;2023-02-15T03:58:27;22.90;63.30
41533;DHT22;27262;-35.248;149.138;2023-02-15T04:04:18;22.90;64.10
41533;DHT22;27262;-35.248;149.138;2023-02-15T04:06:51;22.90;63.50
41533;DHT22;27262;-35.248;149.138;2023-02-15T04:09:22;22.90;63.50
41533;DHT22;27262;-35.248;149.138;2023-02-15T04:12:10;23.00;63.60
41533;DHT22;27262;-35.248;149.138;2023-02-15T04:14:40;23.00;63.70
41533;DHT22;27262;-35.248;149.138;2023-02-15T04:17:29;23.00;63.70
41533;DHT22;27262;-35.248;149.138;2023-02-15T04:19:59;23.00;63.80
41533;DHT22;27262;-35.248;149.138;2023-02-15T04:22:48;23.10;64.00
41533;DHT22;27262;-35.248;149.138;2023-02-15T04:25:36;23.10;64.00
41533;DHT22;27262;-35.248;149.138;2023-02-15T04:28:06;23.10;64.00
41533;DHT22;27262;-35.248;149.138;2023-02-15T04:30:37;23.10;64.10
41533;DHT22;27262;-35.248;149.138;2023-02-15T04:33:07;23.10;64.00
41533;DHT22;27262;-35.248;149.138;2023-02-15T04:35:37;23.20;63.90
41533;DHT22;27262;-35.248;149.138;2023-02-15T04:38:09;23.20;63.70
41533;DHT22;27262;-35.248;149.138;2023-02-15T04:40:40;23.30;63.70
41533;DHT22;27262;-35.248;149.138;2023-02-15T04:43:10;23.30;63.50
41533;DHT22;27262;-35.248;149.138;2023-02-15T04:45:40;23.30;63.40
41533;DHT22;27262;-35.248;149.138;2023-02-15T04:48:10;23.30;63.20
41533;DHT22;27262;-35.248;149.138;2023-02-15T04:50:41;23.30;63.10
41533;DHT22;27262;-35.248;149.138;2023-02-15T04:53:11;23.40;63.00
41533;DHT22;27262;-35.248;149.138;2023-02-15T04:55:41;23.40;62.90
41533;DHT22;27262;-35.248;149.138;2023-02-15T04:58:12;23.40;62.80
41533;DHT22;27262;-35.248;149.138;2023-02-15T05:00:42;23.40;62.70
41533;DHT22;27262;-35.248;149.138;2023-02-15T05:03:12;23.40;62.70
41533;DHT22;27262;-35.248;149.138;2023-02-15T05:05:45;23.40;62.60
41533;DHT22;27262;-35.248;149.138;2023-02-15T05:08:15;23.50;62.60
41533;DHT22;27262;-35.248;149.138;2023-02-15T05:10:58;23.50;62.50
41533;DHT22;27262;-35.248;149.138;2023-02-15T05:13:29;23.60;62.50
41533;DHT22;27262;-35.248;149.138;2023-02-15T05:15:59;23.60;62.50
41533;DHT22;27262;-35.248;149.138;2023-02-15T05:18:30;23.60;62.50
41533;DHT22;27262;-35.248;149.138;2023-02-15T05:21:01;23.60;62.30
41533;DHT22;27262;-35.248;149.138;2023-02-15T05:23:31;23.60;62.30
41533;DHT22;27262;-35.248;149.138;2023-02-15T05:26:01;23.70;62.40
41533;DHT22;27262;-35.248;149.138;2023-02-15T05:28:49;23.70;62.60
41533;DHT22;27262;-35.248;149.138;2023-02-15T05:31:22;23.70;62.60
41533;DHT22;27262;-35.248;149.138;2023-02-15T05:33:54;23.70;62.70
41533;DHT22;27262;-35.248;149.138;2023-02-15T05:36:25;23.80;62.70
41533;DHT22;27262;-35.248;149.138;2023-02-15T05:38:55;23.80;62.70
41533;DHT22;27262;-35.248;149.138;2023-02-15T05:41:26;23.80;62.60
41533;DHT22;27262;-35.248;149.138;2023-02-15T05:43:56;23.90;62.60
41533;DHT22;27262;-35.248;149.138;2023-02-15T05:46:26;23.90;62.50
41533;DHT22;27262;-35.248;149.138;2023-02-15T05:48:57;23.90;62.40
41533;DHT22;27262;-35.248;149.138;2023-02-15T05:51:27;23.90;62.20
41533;DHT22;27262;-35.248;149.138;2023-02-15T05:53:57;23.90;62.10
41533;DHT22;27262;-35.248;149.138;2023-02-15T05:56:27;24.00;62.20
41533;DHT22;27262;-35.248;149.138;2023-02-15T05:59:01;23.90;62.20
41533;DHT22;27262;-35.248;149.138;2023-02-15T06:01:32;24.00;62.30
41533;DHT22;27262;-35.248;149.138;2023-02-15T06:04:02;24.00;62.20
41533;DHT22;27262;-35.248;149.138;2023-02-15T06:06:32;24.00;62.20
41533;DHT22;27262;-35.248;149.138;2023-02-15T06:09:04;24.10;62.20
41533;DHT22;27262;-35.248;149.138;2023-02-15T06:11:34;24.10;62.10
41533;DHT22;27262;-35.248;149.138;2023-02-15T06:14:04;24.10;62.00
41533;DHT22;27262;-35.248;149.138;2023-02-15T06:16:35;24.10;62.00
41533;DHT22;27262;-35.248;149.138;2023-02-15T06:19:05;24.10;62.00
41533;DHT22;27262;-35.248;149.138;2023-02-15T06:21:36;24.20;62.10
41533;DHT22;27262;-35.248;149.138;2023-02-15T06:24:08;24.20;62.10
41533;DHT22;27262;-35.248;149.138;2023-02-15T06:26:38;24.20;62.10
41533;DHT22;27262;-35.248;149.138;2023-02-15T06:29:08;24.30;62.20
41533;DHT22;27262;-35.248;149.138;2023-02-15T06:31:39;24.30;62.20
41533;DHT22;27262;-35.248;149.138;2023-02-15T06:34:09;24.30;62.20
41533;DHT22;27262;-35.248;149.138;2023-02-15T06:36:40;24.30;62.20
41533;DHT22;27262;-35.248;149.138;2023-02-15T06:39:10;24.30;62.10
41533;DHT22;27262;-35.248;149.138;2023-02-15T06:41:40;24.30;62.10
41533;DHT22;27262;-35.248;149.138;2023-02-15T06:44:10;24.40;62.10
41533;DHT22;27262;-35.248;149.138;2023-02-15T06:46:41;24.40;62.10
41533;DHT22;27262;-35.248;149.138;2023-02-15T06:49:15;24.40;62.10
41533;DHT22;27262;-35.248;149.138;2023-02-15T06:51:45;24.40;62.00
41533;DHT22;27262;-35.248;149.138;2023-02-15T06:54:15;24.50;62.00
41533;DHT22;27262;-35.248;149.138;2023-02-15T06:56:46;24.50;61.90
41533;DHT22;27262;-35.248;149.138;2023-02-15T06:59:17;24.50;61.90
41533;DHT22;27262;-35.248;149.138;2023-02-15T07:01:47;24.50;61.80
41533;DHT22;27262;-35.248;149.138;2023-02-15T07:04:18;24.50;61.80
41533;DHT22;27262;-35.248;149.138;2023-02-15T07:06:49;24.50;61.70
41533;DHT22;27262;-35.248;149.138;2023-02-15T07:09:21;24.50;61.70
41533;DHT22;27262;-35.248;149.138;2023-02-15T07:11:51;24.60;61.80
41533;DHT22;27262;-35.248;149.138;2023-02-15T07:14:40;24.60;61.70
41533;DHT22;27262;-35.248;149.138;2023-02-15T07:17:10;24.60;61.70
41533;DHT22;27262;-35.248;149.138;2023-02-15T07:20:13;24.70;61.80
41533;DHT22;27262;-35.248;149.138;2023-02-15T07:22:43;24.60;61.80
41533;DHT22;27262;-35.248;149.138;2023-02-15T07:25:14;24.70;61.90
41533;DHT22;27262;-35.248;149.138;2023-02-15T07:27:45;24.70;61.90
41533;DHT22;27262;-35.248;149.138;2023-02-15T07:30:17;24.70;61.90
41533;DHT22;27262;-35.248;149.138;2023-02-15T07:32:47;24.70;61.90
41533;DHT22;27262;-35.248;149.138;2023-02-15T07:35:36;24.70;61.80
41533;DHT22;27262;-35.248;149.138;2023-02-15T07:38:06;24.70;61.70
41533;DHT22;27262;-35.248;149.138;2023-02-15T07:40:36;24.70;61.70
41533;DHT22;27262;-35.248;149.138;2023-02-15T07:43:07;24.70;61.60
41533;DHT22;27262;-35.248;149.138;2023-02-15T07:45:38;24.70;61.50
41533;DHT22;27262;-35.248;149.138;2023-02-15T07:48:09;24.70;61.40
41533;DHT22;27262;-35.248;149.138;2023-02-15T07:50:39;24.80;61.40
41533;DHT22;27262;-35.248;149.138;2023-02-15T07:53:10;24.80;61.30
41533;DHT22;27262;-35.248;149.138;2023-02-15T07:55:43;24.70;61.20
41533;DHT22;27262;-35.248;149.138;2023-02-15T07:58:14;24.70;61.20
41533;DHT22;27262;-35.248;149.138;2023-02-15T08:00:44;24.70;61.20
41533;DHT22;27262;-35.248;149.138;2023-02-15T08:03:26;24.80;61.20
41533;DHT22;27262;-35.248;149.138;2023-02-15T08:05:59;24.70;61.20
41533;DHT22;27262;-35.248;149.138;2023-02-15T08:08:30;24.80;61.20
41533;DHT22;27262;-35.248;149.138;2023-02-15T08:19:18;24.70;61.20
41533;DHT22;27262;-35.248;149.138;2023-02-15T08:21:55;24.80;61.20
41533;DHT22;27262;-35.248;149.138;2023-02-15T08:24:29;24.80;61.20
41533;DHT22;27262;-35.248;149.138;2023-02-15T08:27:00;24.80;61.20
41533;DHT22;27262;-35.248;149.138;2023-02-15T08:29:35;24.80;61.20
41533;DHT22;27262;-35.248;149.138;2023-02-15T08:32:12;24.80;61.20
41533;DHT22;27262;-35.248;149.138;2023-02-15T08:34:43;24.80;61.10
41533;DHT22;27262;-35.248;149.138;2023-02-15T08:37:13;24.80;61.20
41533;DHT22;27262;-35.248;149.138;2023-02-15T08:39:43;24.80;61.10
41533;DHT22;27262;-35.248;149.138;2023-02-15T08:42:15;24.80;61.10
41533;DHT22;27262;-35.248;149.138;2023-02-15T08:44:45;24.80;61.10
41533;DHT22;27262;-35.248;149.138;2023-02-15T08:47:17;24.80;61.10
41533;DHT22;27262;-35.248;149.138;2023-02-15T08:49:47;24.80;61.10
41533;DHT22;27262;-35.248;149.138;2023-02-15T08:52:17;24.80;61.10
41533;DHT22;27262;-35.248;149.138;2023-02-15T08:54:48;24.80;61.10
41533;DHT22;27262;-35.248;149.138;2023-02-15T08:57:21;24.80;61.20
41533;DHT22;27262;-35.248;149.138;2023-02-15T08:59:52;24.80;61.10
41533;DHT22;27262;-35.248;149.138;2023-02-15T09:02:24;24.80;61.10
41533;DHT22;27262;-35.248;149.138;2023-02-15T09:04:54;24.80;61.10
41533;DHT22;27262;-35.248;149.138;2023-02-15T09:07:25;24.80;61.10
41533;DHT22;27262;-35.248;149.138;2023-02-15T09:09:55;24.90;61.20
41533;DHT22;27262;-35.248;149.138;2023-02-15T09:12:25;24.80;61.10
41533;DHT22;27262;-35.248;149.138;2023-02-15T09:14:56;24.80;61.10
41533;DHT22;27262;-35.248;149.138;2023-02-15T09:17:29;24.80;61.20
41533;DHT22;27262;-35.248;149.138;2023-02-15T09:20:00;24.90;61.20
41533;DHT22;27262;-35.248;149.138;2023-02-15T09:22:31;24.80;61.20
41533;DHT22;27262;-35.248;149.138;2023-02-15T09:25:01;24.80;61.10
41533;DHT22;27262;-35.248;149.138;2023-02-15T09:27:31;24.80;61.10
41533;DHT22;27262;-35.248;149.138;2023-02-15T09:30:02;24.80;61.10
41533;DHT22;27262;-35.248;149.138;2023-02-15T09:32:33;24.80;61.10
41533;DHT22;27262;-35.248;149.138;2023-02-15T09:35:03;24.80;61.10
41533;DHT22;27262;-35.248;149.138;2023-02-15T09:37:37;24.80;61.10
41533;DHT22;27262;-35.248;149.138;2023-02-15T09:40:07;24.80;61.10
41533;DHT22;27262;-35.248;149.138;2023-02-15T09:43:08;24.80;61.10
41533;DHT22;27262;-35.248;149.138;2023-02-15T09:48:38;24.80;61.10
41533;DHT22;27262;-35.248;149.138;2023-02-15T09:54:01;24.80;61.10
41533;DHT22;27262;-35.248;149.138;2023-02-15T09:56:51;24.80;61.10
41533;DHT22;27262;-35.248;149.138;2023-02-15T09:59:47;24.80;61.10
41533;DHT22;27262;-35.248;149.138;2023-02-15T10:14:13;24.80;61.20
41533;DHT22;27262;-35.248;149.138;2023-02-15T10:20:00;24.70;61.10
41533;DHT22;27262;-35.248;149.138;2023-02-15T10:34:39;24.70;61.30
41533;DHT22;27262;-35.248;149.138;2023-02-15T10:40:26;24.80;61.50
41533;DHT22;27262;-35.248;149.138;2023-02-15T10:43:20;24.70;61.30
41533;DHT22;27262;-35.248;149.138;2023-02-15T10:54:44;24.80;61.50
41533;DHT22;27262;-35.248;149.138;2023-02-15T11:00:19;24.80;61.80
41533;DHT22;27262;-35.248;149.138;2023-02-15T11:06:00;24.70;61.70
41533;DHT22;27262;-35.248;149.138;2023-02-15T11:08:37;24.80;61.50
41533;DHT22;27262;-35.248;149.138;2023-02-15T11:17:22;24.70;61.40
41533;DHT22;27262;-35.248;149.138;2023-02-15T11:20:08;24.70;61.60
41533;DHT22;27262;-35.248;149.138;2023-02-15T11:22:40;24.70;61.50
41533;DHT22;27262;-35.248;149.138;2023-02-15T11:25:39;24.70;61.50
41533;DHT22;27262;-35.248;149.138;2023-02-15T11:28:22;24.70;61.40
41533;DHT22;27262;-35.248;149.138;2023-02-15T11:30:56;24.70;61.60
41533;DHT22;27262;-35.248;149.138;2023-02-15T11:33:35;24.70;61.70
41533;DHT22;27262;-35.248;149.138;2023-02-15T11:36:34;24.70;61.70
41533;DHT22;27262;-35.248;149.138;2023-02-15T11:39:13;24.70;61.50
41533;DHT22;27262;-35.248;149.138;2023-02-15T11:41:51;24.70;61.50
41533;DHT22;27262;-35.248;149.138;2023-02-15T11:44:33;24.70;61.70
41533;DHT22;27262;-35.248;149.138;2023-02-15T11:47:10;24.70;61.60
41533;DHT22;27262;-35.248;149.138;2023-02-15T11:49:40;24.70;61.60
41533;DHT22;27262;-35.248;149.138;2023-02-15T11:52:16;24.70;61.70
41533;DHT22;27262;-35.248;149.138;2023-02-15T11:54:50;24.70;61.70
41533;DHT22;27262;-35.248;149.138;2023-02-15T11:57:39;24.70;61.70
41533;DHT22;27262;-35.248;149.138;2023-02-15T12:00:36;24.70;61.60
41533;DHT22;27262;-35.248;149.138;2023-02-15T12:03:21;24.70;61.60
41533;DHT22;27262;-35.248;149.138;2023-02-15T12:05:58;24.70;61.70
41533;DHT22;27262;-35.248;149.138;2023-02-15T12:08:43;24.70;61.80
41533;DHT22;27262;-35.248;149.138;2023-02-15T12:11:43;24.70;61.70
41533;DHT22;27262;-35.248;149.138;2023-02-15T12:14:14;24.70;61.70
41533;DHT22;27262;-35.248;149.138;2023-02-15T12:16:52;24.70;61.80
41533;DHT22;27262;-35.248;149.138;2023-02-15T12:19:32;24.70;61.80
41533;DHT22;27262;-35.248;149.138;2023-02-15T12:22:05;24.70;61.80
41533;DHT22;27262;-35.248;149.138;2023-02-15T12:24:45;24.70;61.80
41533;DHT22;27262;-35.248;149.138;2023-02-15T12:27:56;24.70;61.80
41533;DHT22;27262;-35.248;149.138;2023-02-15T12:32:56;24.60;61.80
41533;DHT22;27262;-35.248;149.138;2023-02-15T12:35:31;24.60;61.70
41533;DHT22;27262;-35.248;149.138;2023-02-15T12:38:21;24.60;61.80
41533;DHT22;27262;-35.248;149.138;2023-02-15T12:41:23;24.60;61.80
41533;DHT22;27262;-35.248;149.138;2023-02-15T12:44:19;24.60;61.70
41533;DHT22;27262;-35.248;149.138;2023-02-15T12:47:06;24.60;61.70
41533;DHT22;27262;-35.248;149.138;2023-02-15T12:52:39;24.60;61.80
41533;DHT22;27262;-35.248;149.138;2023-02-15T12:55:28;24.60;61.90
41533;DHT22;27262;-35.248;149.138;2023-02-15T12:58:19;24.60;61.70
41533;DHT22;27262;-35.248;149.138;2023-02-15T13:01:14;24.60;61.80
41533;DHT22;27262;-35.248;149.138;2023-02-15T13:04:01;24.60;61.80
41533;DHT22;27262;-35.248;149.138;2023-02-15T13:06:35;24.50;61.80
41533;DHT22;27262;-35.248;149.138;2023-02-15T13:11:39;24.60;62.60
41533;DHT22;27262;-35.248;149.138;2023-02-15T13:14:20;24.60;61.90
41533;DHT22;27262;-35.248;149.138;2023-02-15T13:16:53;24.60;61.80
41533;DHT22;27262;-35.248;149.138;2023-02-15T13:19:47;24.50;61.80
41533;DHT22;27262;-35.248;149.138;2023-02-15T13:22:28;24.60;62.50
41533;DHT22;27262;-35.248;149.138;2023-02-15T13:25:25;24.50;61.90
41533;DHT22;27262;-35.248;149.138;2023-02-15T13:28:02;24.50;61.90
41533;DHT22;27262;-35.248;149.138;2023-02-15T13:30:37;24.50;61.90
41533;DHT22;27262;-35.248;149.138;2023-02-15T13:33:16;24.50;61.90
41533;DHT22;27262;-35.248;149.138;2023-02-15T13:36:07;24.50;61.90
41533;DHT22;27262;-35.248;149.138;2023-02-15T13:42:22;24.50;61.90
41533;DHT22;27262;-35.248;149.138;2023-02-15T13:47:26;24.50;62.10
41533;DHT22;27262;-35.248;149.138;2023-02-15T13:52:52;24.50;62.00
41533;DHT22;27262;-35.248;149.138;2023-02-15T13:55:42;24.50;62.00
41533;DHT22;27262;-35.248;149.138;2023-02-15T14:10:54;24.40;61.90
41533;DHT22;27262;-35.248;149.138;2023-02-15T14:20:01;24.40;62.10
41533;DHT22;27262;-35.248;149.138;2023-02-15T14:22:43;24.40;62.10
41533;DHT22;27262;-35.248;149.138;2023-02-15T14:28:14;24.40;62.20
41533;DHT22;27262;-35.248;149.138;2023-02-15T14:30:48;24.40;62.10
41533;DHT22;27262;-35.248;149.138;2023-02-15T14:36:05;24.30;62.10
41533;DHT22;27262;-35.248;149.138;2023-02-15T14:42:18;24.30;62.00
41533;DHT22;27262;-35.248;149.138;2023-02-15T14:45:15;24.30;62.10
41533;DHT22;27262;-35.248;149.138;2023-02-15T14:48:16;24.30;62.10
41533;DHT22;27262;-35.248;149.138;2023-02-15T14:50:46;24.30;62.10
41533;DHT22;27262;-35.248;149.138;2023-02-15T14:56:25;24.30;62.20
41533;DHT22;27262;-35.248;149.138;2023-02-15T14:58:59;24.30;62.10
41533;DHT22;27262;-35.248;149.138;2023-02-15T15:01:34;24.30;62.30
41533;DHT22;27262;-35.248;149.138;2023-02-15T15:04:13;24.30;62.20
41533;DHT22;27262;-35.248;149.138;2023-02-15T15:07:20;24.30;62.20
41533;DHT22;27262;-35.248;149.138;2023-02-15T15:12:50;24.30;62.20
41533;DHT22;27262;-35.248;149.138;2023-02-15T15:18:08;24.30;62.30
41533;DHT22;27262;-35.248;149.138;2023-02-15T15:20:45;24.30;62.30
41533;DHT22;27262;-35.248;149.138;2023-02-15T15:31:28;24.20;63.00
41533;DHT22;27262;-35.248;149.138;2023-02-15T15:37:34;24.20;62.30
41533;DHT22;27262;-35.248;149.138;2023-02-15T15:46:41;24.20;62.30
41533;DHT22;27262;-35.248;149.138;2023-02-15T15:49:19;24.10;62.50
41533;DHT22;27262;-35.248;149.138;2023-02-15T15:51:50;24.10;62.50
41533;DHT22;27262;-35.248;149.138;2023-02-15T15:54:22;24.10;62.50
41533;DHT22;27262;-35.248;149.138;2023-02-15T15:57:02;24.10;62.70
41533;DHT22;27262;-35.248;149.138;2023-02-15T15:59:34;24.10;62.50
41533;DHT22;27262;-35.248;149.138;2023-02-15T16:02:06;24.10;62.60
41533;DHT22;27262;-35.248;149.138;2023-02-15T16:04:37;24.10;62.50
41533;DHT22;27262;-35.248;149.138;2023-02-15T16:12:33;24.10;62.50
41533;DHT22;27262;-35.248;149.138;2023-02-15T16:15:34;24.10;62.50
41533;DHT22;27262;-35.248;149.138;2023-02-15T16:18:05;24.10;62.50
41533;DHT22;27262;-35.248;149.138;2023-02-15T16:20:37;24.10;62.70
41533;DHT22;27262;-35.248;149.138;2023-02-15T16:26:37;24.10;62.50
41533;DHT22;27262;-35.248;149.138;2023-02-15T16:29:18;24.00;62.70
41533;DHT22;27262;-35.248;149.138;2023-02-15T16:32:14;24.00;62.60
41533;DHT22;27262;-35.248;149.138;2023-02-15T16:34:56;24.00;62.60
41533;DHT22;27262;-35.248;149.138;2023-02-15T16:37:31;24.00;62.60
41533;DHT22;27262;-35.248;149.138;2023-02-15T16:40:02;24.00;62.70
41533;DHT22;27262;-35.248;149.138;2023-02-15T16:42:33;24.00;62.70
41533;DHT22;27262;-35.248;149.138;2023-02-15T16:45:12;24.00;62.70
41533;DHT22;27262;-35.248;149.138;2023-02-15T16:47:46;24.00;62.60
41533;DHT22;27262;-35.248;149.138;2023-02-15T16:50:20;24.00;62.60
41533;DHT22;27262;-35.248;149.138;2023-02-15T16:52:52;23.90;62.60
41533;DHT22;27262;-35.248;149.138;2023-02-15T16:55:25;23.90;62.60
41533;DHT22;27262;-35.248;149.138;2023-02-15T16:57:59;23.90;62.60
41533;DHT22;27262;-35.248;149.138;2023-02-15T17:00:37;23.90;62.50
41533;DHT22;27262;-35.248;149.138;2023-02-15T17:05:46;23.90;62.60
41533;DHT22;27262;-35.248;149.138;2023-02-15T17:08:33;23.90;62.50
41533;DHT22;27262;-35.248;149.138;2023-02-15T17:11:15;23.90;62.50
41533;DHT22;27262;-35.248;149.138;2023-02-15T17:16:53;23.90;62.50
41533;DHT22;27262;-35.248;149.138;2023-02-15T17:19:27;23.90;62.60
41533;DHT22;27262;-35.248;149.138;2023-02-15T17:22:04;23.80;63.40
41533;DHT22;27262;-35.248;149.138;2023-02-15T17:24:43;23.80;62.60
41533;DHT22;27262;-35.248;149.138;2023-02-15T17:27:32;23.80;62.60
41533;DHT22;27262;-35.248;149.138;2023-02-15T17:30:14;23.80;62.50
41533;DHT22;27262;-35.248;149.138;2023-02-15T17:33:03;23.80;62.50
41533;DHT22;27262;-35.248;149.138;2023-02-15T17:35:34;23.80;62.50
41533;DHT22;27262;-35.248;149.138;2023-02-15T17:38:19;23.80;62.60
41533;DHT22;27262;-35.248;149.138;2023-02-15T17:40:58;23.80;62.50
41533;DHT22;27262;-35.248;149.138;2023-02-15T17:43:29;23.80;62.70
41533;DHT22;27262;-35.248;149.138;2023-02-15T17:45:59;23.80;62.70
41533;DHT22;27262;-35.248;149.138;2023-02-15T17:48:35;23.80;62.70
41533;DHT22;27262;-35.248;149.138;2023-02-15T17:51:10;23.80;62.70
41533;DHT22;27262;-35.248;149.138;2023-02-15T17:53:44;23.80;62.70
41533;DHT22;27262;-35.248;149.138;2023-02-15T17:56:36;23.70;62.70
41533;DHT22;27262;-35.248;149.138;2023-02-15T17:59:06;23.70;62.70
41533;DHT22;27262;-35.248;149.138;2023-02-15T18:01:47;23.70;62.70
41533;DHT22;27262;-35.248;149.138;2023-02-15T18:04:36;23.70;62.60
41533;DHT22;27262;-35.248;149.138;2023-02-15T18:07:25;23.70;62.70
41533;DHT22;27262;-35.248;149.138;2023-02-15T18:10:16;23.70;62.70
41533;DHT22;27262;-35.248;149.138;2023-02-15T18:13:04;23.70;62.70
41533;DHT22;27262;-35.248;149.138;2023-02-15T18:15:37;23.60;62.70
41533;DHT22;27262;-35.248;149.138;2023-02-15T18:18:09;23.60;63.40
41533;DHT22;27262;-35.248;149.138;2023-02-15T18:20:41;23.60;62.60
41533;DHT22;27262;-35.248;149.138;2023-02-15T18:23:17;23.60;62.70
41533;DHT22;27262;-35.248;149.138;2023-02-15T18:25:48;23.60;62.70
41533;DHT22;27262;-35.248;149.138;2023-02-15T18:28:18;23.60;62.70
41533;DHT22;27262;-35.248;149.138;2023-02-15T18:30:48;23.60;62.70
41533;DHT22;27262;-35.248;149.138;2023-02-15T18:33:32;23.60;62.70
41533;DHT22;27262;-35.248;149.138;2023-02-15T18:36:06;23.60;62.60
41533;DHT22;27262;-35.248;149.138;2023-02-15T18:38:37;23.60;62.70
41533;DHT22;27262;-35.248;149.138;2023-02-15T18:41:08;23.60;62.70
41533;DHT22;27262;-35.248;149.138;2023-02-15T18:43:44;23.60;62.70
41533;DHT22;27262;-35.248;149.138;2023-02-15T18:46:16;23.50;62.70
41533;DHT22;27262;-35.248;149.138;2023-02-15T18:48:47;23.50;62.60
41533;DHT22;27262;-35.248;149.138;2023-02-15T18:51:20;23.60;62.70
41533;DHT22;27262;-35.248;149.138;2023-02-15T18:53:51;23.50;62.60
41533;DHT22;27262;-35.248;149.138;2023-02-15T18:56:22;23.50;62.60